Bovey Tracey, United Kingdom
Current Conditions -  °F | °C
As of 7:20 AM on Monday 22 Dec 2014 (Local Time) from EGTE Reporting Station
Scattered Clouds Scattered Clouds  
Wind Chill: 55°   Ceiling: Unl
Heat Index: 55°   Visibility: 6mi
Dew Point: 48°   Wind: 21mph
Humidity: 77%   Direction: 260°W
Pressure: 30.15"   Gusts: NA
Location:  50.59°N, 3.68°W
Report Text: EGTE 220720Z 26018KT 9999 SCT025 13/09 Q1021
Loading
Personal Weather Stations






























Interactive Weather Map New forecast layout! Learn more

10-Day Weather Forecast

Advertisements
Track Severe Weather on mobile